sensor_id;sensor_type;location;lat;lon;timestamp;temperature;humidity
31695;DHT22;18289;51.330;4.946;2022-07-23T00:00:37;17.70;99.90
31695;DHT22;18289;51.330;4.946;2022-07-23T00:03:03;17.80;99.90
31695;DHT22;18289;51.330;4.946;2022-07-23T00:05:29;17.90;99.90
31695;DHT22;18289;51.330;4.946;2022-07-23T00:07:55;17.80;99.90
31695;DHT22;18289;51.330;4.946;2022-07-23T00:10:21;17.80;99.90
31695;DHT22;18289;51.330;4.946;2022-07-23T00:12:46;17.70;99.90
31695;DHT22;18289;51.330;4.946;2022-07-23T00:15:12;17.70;99.90
31695;DHT22;18289;51.330;4.946;2022-07-23T00:17:38;17.60;99.90
31695;DHT22;18289;51.330;4.946;2022-07-23T00:20:05;17.60;99.90
31695;DHT22;18289;51.330;4.946;2022-07-23T00:22:31;17.70;99.90
31695;DHT22;18289;51.330;4.946;2022-07-23T00:24:57;17.80;99.90
31695;DHT22;18289;51.330;4.946;2022-07-23T00:27:23;17.70;99.90
31695;DHT22;18289;51.330;4.946;2022-07-23T00:29:49;17.70;99.90
31695;DHT22;18289;51.330;4.946;2022-07-23T00:32:15;17.70;99.90
31695;DHT22;18289;51.330;4.946;2022-07-23T00:34:41;17.60;99.90
31695;DHT22;18289;51.330;4.946;2022-07-23T00:37:07;17.50;99.90
31695;DHT22;18289;51.330;4.946;2022-07-23T00:39:33;17.50;99.90
31695;DHT22;18289;51.330;4.946;2022-07-23T00:41:59;17.40;99.90
31695;DHT22;18289;51.330;4.946;2022-07-23T00:44:27;17.40;99.90
31695;DHT22;18289;51.330;4.946;2022-07-23T00:46:58;17.40;99.90
31695;DHT22;18289;51.330;4.946;2022-07-23T00:49:28;17.30;99.90
31695;DHT22;18289;51.330;4.946;2022-07-23T00:51:55;17.20;99.90
31695;DHT22;18289;51.330;4.946;2022-07-23T00:54:24;17.30;99.90
31695;DHT22;18289;51.330;4.946;2022-07-23T00:56:51;17.30;99.90
31695;DHT22;18289;51.330;4.946;2022-07-23T00:59:17;17.20;99.90
31695;DHT22;18289;51.330;4.946;2022-07-23T01:01:43;17.20;99.90
31695;DHT22;18289;51.330;4.946;2022-07-23T01:04:10;17.20;99.90
31695;DHT22;18289;51.330;4.946;2022-07-23T01:06:37;17.20;99.90
31695;DHT22;18289;51.330;4.946;2022-07-23T01:09:05;17.20;99.90
31695;DHT22;18289;51.330;4.946;2022-07-23T01:11:35;17.20;99.90
31695;DHT22;18289;51.330;4.946;2022-07-23T01:14:15;17.20;99.90
31695;DHT22;18289;51.330;4.946;2022-07-23T01:16:43;17.10;99.90
31695;DHT22;18289;51.330;4.946;2022-07-23T01:19:09;17.00;99.90
31695;DHT22;18289;51.330;4.946;2022-07-23T01:21:38;17.00;99.90
31695;DHT22;18289;51.330;4.946;2022-07-23T01:24:05;17.00;99.90
31695;DHT22;18289;51.330;4.946;2022-07-23T01:26:31;17.10;99.90
31695;DHT22;18289;51.330;4.946;2022-07-23T01:28:57;17.00;99.90
31695;DHT22;18289;51.330;4.946;2022-07-23T01:31:23;17.00;99.90
31695;DHT22;18289;51.330;4.946;2022-07-23T01:33:48;16.90;99.90
31695;DHT22;18289;51.330;4.946;2022-07-23T01:36:14;16.80;99.90
31695;DHT22;18289;51.330;4.946;2022-07-23T01:38:40;16.70;99.90
31695;DHT22;18289;51.330;4.946;2022-07-23T01:41:06;16.70;99.90
31695;DHT22;18289;51.330;4.946;2022-07-23T01:43:32;16.70;99.90
31695;DHT22;18289;51.330;4.946;2022-07-23T01:45:58;16.70;99.90
31695;DHT22;18289;51.330;4.946;2022-07-23T01:48:24;16.80;99.90
31695;DHT22;18289;51.330;4.946;2022-07-23T01:50:50;16.60;99.90
31695;DHT22;18289;51.330;4.946;2022-07-23T01:53:16;16.60;99.90
31695;DHT22;18289;51.330;4.946;2022-07-23T01:55:42;16.50;99.90
31695;DHT22;18289;51.330;4.946;2022-07-23T01:58:08;16.50;99.90
31695;DHT22;18289;51.330;4.946;2022-07-23T02:00:34;16.60;99.90
31695;DHT22;18289;51.330;4.946;2022-07-23T02:03:00;16.50;99.90
31695;DHT22;18289;51.330;4.946;2022-07-23T02:05:27;16.40;99.90
31695;DHT22;18289;51.330;4.946;2022-07-23T02:07:57;16.50;99.90
31695;DHT22;18289;51.330;4.946;2022-07-23T02:10:24;16.40;99.90
31695;DHT22;18289;51.330;4.946;2022-07-23T02:12:50;16.50;99.90
31695;DHT22;18289;51.330;4.946;2022-07-23T02:15:16;16.30;99.90
31695;DHT22;18289;51.330;4.946;2022-07-23T02:17:42;16.30;99.90
31695;DHT22;18289;51.330;4.946;2022-07-23T02:20:09;16.30;99.90
31695;DHT22;18289;51.330;4.946;2022-07-23T02:22:35;16.30;99.90
31695;DHT22;18289;51.330;4.946;2022-07-23T02:25:03;16.30;99.90
31695;DHT22;18289;51.330;4.946;2022-07-23T02:27:29;16.30;99.90
31695;DHT22;18289;51.330;4.946;2022-07-23T02:29:55;16.10;99.90
31695;DHT22;18289;51.330;4.946;2022-07-23T02:32:21;16.20;99.90
31695;DHT22;18289;51.330;4.946;2022-07-23T02:34:47;16.20;99.90
31695;DHT22;18289;51.330;4.946;2022-07-23T02:37:13;16.10;99.90
31695;DHT22;18289;51.330;4.946;2022-07-23T02:39:39;16.10;99.90
31695;DHT22;18289;51.330;4.946;2022-07-23T02:42:05;16.10;99.90
31695;DHT22;18289;51.330;4.946;2022-07-23T02:44:31;16.20;99.90
31695;DHT22;18289;51.330;4.946;2022-07-23T02:46:57;16.00;99.90
31695;DHT22;18289;51.330;4.946;2022-07-23T02:49:23;16.00;99.90
31695;DHT22;18289;51.330;4.946;2022-07-23T02:51:49;16.10;99.90
31695;DHT22;18289;51.330;4.946;2022-07-23T02:54:15;16.00;99.90
31695;DHT22;18289;51.330;4.946;2022-07-23T02:56:42;16.10;99.90
31695;DHT22;18289;51.330;4.946;2022-07-23T02:59:08;16.00;99.90
31695;DHT22;18289;51.330;4.946;2022-07-23T03:01:34;16.00;99.90
31695;DHT22;18289;51.330;4.946;2022-07-23T03:04:03;16.10;99.90
31695;DHT22;18289;51.330;4.946;2022-07-23T03:06:29;16.20;99.90
31695;DHT22;18289;51.330;4.946;2022-07-23T03:08:55;16.00;99.90
31695;DHT22;18289;51.330;4.946;2022-07-23T03:11:21;16.00;99.90
31695;DHT22;18289;51.330;4.946;2022-07-23T03:13:47;15.90;99.90
31695;DHT22;18289;51.330;4.946;2022-07-23T03:16:13;15.70;99.90
31695;DHT22;18289;51.330;4.946;2022-07-23T03:18:39;15.70;99.90
31695;DHT22;18289;51.330;4.946;2022-07-23T03:21:05;15.60;99.90
31695;DHT22;18289;51.330;4.946;2022-07-23T03:23:31;15.60;99.90
31695;DHT22;18289;51.330;4.946;2022-07-23T03:25:57;15.60;99.90
31695;DHT22;18289;51.330;4.946;2022-07-23T03:28:22;15.60;99.90
31695;DHT22;18289;51.330;4.946;2022-07-23T03:30:48;15.60;99.90
31695;DHT22;18289;51.330;4.946;2022-07-23T03:33:16;15.60;99.90
31695;DHT22;18289;51.330;4.946;2022-07-23T03:35:43;15.50;99.90
31695;DHT22;18289;51.330;4.946;2022-07-23T03:38:09;15.50;99.90
31695;DHT22;18289;51.330;4.946;2022-07-23T03:40:35;15.40;99.90
31695;DHT22;18289;51.330;4.946;2022-07-23T03:43:00;15.40;99.90
31695;DHT22;18289;51.330;4.946;2022-07-23T03:45:27;15.60;99.90
31695;DHT22;18289;51.330;4.946;2022-07-23T03:47:52;15.60;99.90
31695;DHT22;18289;51.330;4.946;2022-07-23T03:50:19;15.60;99.90
31695;DHT22;18289;51.330;4.946;2022-07-23T03:52:45;15.60;99.90
31695;DHT22;18289;51.330;4.946;2022-07-23T03:55:11;15.60;99.90
31695;DHT22;18289;51.330;4.946;2022-07-23T03:57:37;15.60;99.90
31695;DHT22;18289;51.330;4.946;2022-07-23T04:00:05;15.40;99.90
31695;DHT22;18289;51.330;4.946;2022-07-23T04:02:32;15.50;99.90
31695;DHT22;18289;51.330;4.946;2022-07-23T04:04:58;15.50;99.90
31695;DHT22;18289;51.330;4.946;2022-07-23T04:07:25;15.50;99.90
31695;DHT22;18289;51.330;4.946;2022-07-23T04:09:51;15.50;99.90
31695;DHT22;18289;51.330;4.946;2022-07-23T04:12:16;15.60;99.90
31695;DHT22;18289;51.330;4.946;2022-07-23T04:14:43;15.60;99.90
31695;DHT22;18289;51.330;4.946;2022-07-23T04:17:09;15.60;99.90
31695;DHT22;18289;51.330;4.946;2022-07-23T04:19:34;15.60;99.90
31695;DHT22;18289;51.330;4.946;2022-07-23T04:22:06;15.60;99.90
31695;DHT22;18289;51.330;4.946;2022-07-23T04:24:32;15.50;99.90
31695;DHT22;18289;51.330;4.946;2022-07-23T04:26:58;15.50;99.90
31695;DHT22;18289;51.330;4.946;2022-07-23T04:29:24;15.50;99.90
31695;DHT22;18289;51.330;4.946;2022-07-23T04:31:51;15.60;99.90
31695;DHT22;18289;51.330;4.946;2022-07-23T04:34:17;15.50;99.90
31695;DHT22;18289;51.330;4.946;2022-07-23T04:36:43;15.40;99.90
31695;DHT22;18289;51.330;4.946;2022-07-23T04:39:08;15.40;99.90
31695;DHT22;18289;51.330;4.946;2022-07-23T04:41:34;15.50;99.90
31695;DHT22;18289;51.330;4.946;2022-07-23T04:44:01;15.60;99.90
31695;DHT22;18289;51.330;4.946;2022-07-23T04:46:27;15.70;99.90
31695;DHT22;18289;51.330;4.946;2022-07-23T04:48:53;15.60;99.90
31695;DHT22;18289;51.330;4.946;2022-07-23T04:51:20;15.60;99.90
31695;DHT22;18289;51.330;4.946;2022-07-23T04:53:46;15.50;99.90
31695;DHT22;18289;51.330;4.946;2022-07-23T04:56:12;15.40;99.90
31695;DHT22;18289;51.330;4.946;2022-07-23T04:58:38;15.40;99.90
31695;DHT22;18289;51.330;4.946;2022-07-23T05:01:06;15.50;99.90
31695;DHT22;18289;51.330;4.946;2022-07-23T05:03:32;15.60;99.90
31695;DHT22;18289;51.330;4.946;2022-07-23T05:05:59;15.60;99.90
31695;DHT22;18289;51.330;4.946;2022-07-23T05:08:25;15.60;99.90
31695;DHT22;18289;51.330;4.946;2022-07-23T05:10:51;15.60;99.90
31695;DHT22;18289;51.330;4.946;2022-07-23T05:13:17;15.80;99.90
31695;DHT22;18289;51.330;4.946;2022-07-23T05:15:44;15.80;99.90
31695;DHT22;18289;51.330;4.946;2022-07-23T05:18:10;15.80;99.90
31695;DHT22;18289;51.330;4.946;2022-07-23T05:20:36;15.90;99.90
31695;DHT22;18289;51.330;4.946;2022-07-23T05:23:03;15.90;99.90
31695;DHT22;18289;51.330;4.946;2022-07-23T05:25:29;15.90;99.90
31695;DHT22;18289;51.330;4.946;2022-07-23T05:27:55;16.10;99.90
31695;DHT22;18289;51.330;4.946;2022-07-23T05:30:21;16.10;99.90
31695;DHT22;18289;51.330;4.946;2022-07-23T05:32:47;16.20;99.90
31695;DHT22;18289;51.330;4.946;2022-07-23T05:35:13;16.20;99.90
31695;DHT22;18289;51.330;4.946;2022-07-23T05:37:39;16.40;99.90
31695;DHT22;18289;51.330;4.946;2022-07-23T05:40:07;16.40;99.90
31695;DHT22;18289;51.330;4.946;2022-07-23T05:42:35;16.50;99.90
31695;DHT22;18289;51.330;4.946;2022-07-23T05:45:01;16.50;99.90
31695;DHT22;18289;51.330;4.946;2022-07-23T05:47:27;16.50;99.90
31695;DHT22;18289;51.330;4.946;2022-07-23T05:49:53;16.60;99.90
31695;DHT22;18289;51.330;4.946;2022-07-23T05:52:19;16.70;99.90
31695;DHT22;18289;51.330;4.946;2022-07-23T05:54:45;16.80;99.90
31695;DHT22;18289;51.330;4.946;2022-07-23T05:57:10;16.90;99.90
31695;DHT22;18289;51.330;4.946;2022-07-23T05:59:36;17.00;99.90
31695;DHT22;18289;51.330;4.946;2022-07-23T06:02:02;17.20;99.90
31695;DHT22;18289;51.330;4.946;2022-07-23T06:04:28;17.30;99.90
31695;DHT22;18289;51.330;4.946;2022-07-23T06:06:54;17.40;99.90
31695;DHT22;18289;51.330;4.946;2022-07-23T06:09:20;17.40;99.90
31695;DHT22;18289;51.330;4.946;2022-07-23T06:11:45;17.60;99.90
31695;DHT22;18289;51.330;4.946;2022-07-23T06:14:11;17.50;99.90
31695;DHT22;18289;51.330;4.946;2022-07-23T06:16:37;17.50;99.90
31695;DHT22;18289;51.330;4.946;2022-07-23T06:19:03;17.50;99.90
31695;DHT22;18289;51.330;4.946;2022-07-23T06:21:29;17.70;99.90
31695;DHT22;18289;51.330;4.946;2022-07-23T06:23:55;17.70;99.90
31695;DHT22;18289;51.330;4.946;2022-07-23T06:26:20;17.80;99.90
31695;DHT22;18289;51.330;4.946;2022-07-23T06:28:46;17.70;99.90
31695;DHT22;18289;51.330;4.946;2022-07-23T06:31:12;17.80;99.90
31695;DHT22;18289;51.330;4.946;2022-07-23T06:33:38;17.90;99.90
31695;DHT22;18289;51.330;4.946;2022-07-23T06:36:04;18.00;99.90
31695;DHT22;18289;51.330;4.946;2022-07-23T06:38:30;18.00;99.90
31695;DHT22;18289;51.330;4.946;2022-07-23T06:40:56;18.20;99.90
31695;DHT22;18289;51.330;4.946;2022-07-23T06:43:21;18.30;99.90
31695;DHT22;18289;51.330;4.946;2022-07-23T06:45:47;18.30;99.90
31695;DHT22;18289;51.330;4.946;2022-07-23T06:48:13;18.30;99.90
31695;DHT22;18289;51.330;4.946;2022-07-23T06:50:39;18.40;99.90
31695;DHT22;18289;51.330;4.946;2022-07-23T06:53:05;18.50;99.90
31695;DHT22;18289;51.330;4.946;2022-07-23T06:55:31;18.60;99.90
31695;DHT22;18289;51.330;4.946;2022-07-23T06:57:57;18.40;99.90
31695;DHT22;18289;51.330;4.946;2022-07-23T07:00:22;18.60;99.90
31695;DHT22;18289;51.330;4.946;2022-07-23T07:02:48;18.70;99.90
31695;DHT22;18289;51.330;4.946;2022-07-23T07:05:14;18.60;99.90
31695;DHT22;18289;51.330;4.946;2022-07-23T07:07:40;18.60;99.90
31695;DHT22;18289;51.330;4.946;2022-07-23T07:10:06;18.80;99.90
31695;DHT22;18289;51.330;4.946;2022-07-23T07:12:32;18.90;99.90
31695;DHT22;18289;51.330;4.946;2022-07-23T07:14:58;18.90;99.90
31695;DHT22;18289;51.330;4.946;2022-07-23T07:17:24;18.90;99.90
31695;DHT22;18289;51.330;4.946;2022-07-23T07:19:50;19.00;99.90
31695;DHT22;18289;51.330;4.946;2022-07-23T07:22:16;19.10;99.90
31695;DHT22;18289;51.330;4.946;2022-07-23T07:24:42;19.20;99.90
31695;DHT22;18289;51.330;4.946;2022-07-23T07:27:07;19.20;99.90
31695;DHT22;18289;51.330;4.946;2022-07-23T07:29:33;19.30;99.90
31695;DHT22;18289;51.330;4.946;2022-07-23T07:31:59;19.40;99.90
31695;DHT22;18289;51.330;4.946;2022-07-23T07:34:25;19.50;99.90
31695;DHT22;18289;51.330;4.946;2022-07-23T07:36:51;19.50;99.90
31695;DHT22;18289;51.330;4.946;2022-07-23T07:39:17;19.50;99.90
31695;DHT22;18289;51.330;4.946;2022-07-23T07:41:42;19.60;99.90
31695;DHT22;18289;51.330;4.946;2022-07-23T07:44:08;19.70;99.90
31695;DHT22;18289;51.330;4.946;2022-07-23T07:46:34;19.70;99.90
31695;DHT22;18289;51.330;4.946;2022-07-23T07:49:00;19.80;99.90
31695;DHT22;18289;51.330;4.946;2022-07-23T07:51:26;19.60;99.90
31695;DHT22;18289;51.330;4.946;2022-07-23T07:53:52;19.90;99.90
31695;DHT22;18289;51.330;4.946;2022-07-23T07:56:18;20.00;99.90
31695;DHT22;18289;51.330;4.946;2022-07-23T07:58:44;19.90;99.90
31695;DHT22;18289;51.330;4.946;2022-07-23T08:01:10;20.00;99.90
31695;DHT22;18289;51.330;4.946;2022-07-23T08:03:35;20.10;99.90
31695;DHT22;18289;51.330;4.946;2022-07-23T08:06:01;20.20;99.90
31695;DHT22;18289;51.330;4.946;2022-07-23T08:08:27;20.20;99.90
31695;DHT22;18289;51.330;4.946;2022-07-23T08:10:53;20.20;99.90
31695;DHT22;18289;51.330;4.946;2022-07-23T08:13:19;20.20;99.90
31695;DHT22;18289;51.330;4.946;2022-07-23T08:15:44;20.20;99.90
31695;DHT22;18289;51.330;4.946;2022-07-23T08:18:10;20.30;99.90
31695;DHT22;18289;51.330;4.946;2022-07-23T08:20:36;20.40;99.90
31695;DHT22;18289;51.330;4.946;2022-07-23T08:23:07;20.50;99.90
31695;DHT22;18289;51.330;4.946;2022-07-23T08:25:35;20.60;99.90
31695;DHT22;18289;51.330;4.946;2022-07-23T08:28:02;20.70;99.90
31695;DHT22;18289;51.330;4.946;2022-07-23T08:30:29;20.60;99.90
31695;DHT22;18289;51.330;4.946;2022-07-23T08:32:58;20.80;99.90
31695;DHT22;18289;51.330;4.946;2022-07-23T08:35:35;20.70;99.90
31695;DHT22;18289;51.330;4.946;2022-07-23T08:38:03;20.70;99.90
31695;DHT22;18289;51.330;4.946;2022-07-23T08:40:31;20.80;99.90
31695;DHT22;18289;51.330;4.946;2022-07-23T08:42:57;20.80;99.90
31695;DHT22;18289;51.330;4.946;2022-07-23T08:45:24;20.90;99.90
31695;DHT22;18289;51.330;4.946;2022-07-23T08:47:55;21.10;99.90
31695;DHT22;18289;51.330;4.946;2022-07-23T08:50:23;21.20;99.90
31695;DHT22;18289;51.330;4.946;2022-07-23T08:52:49;21.20;99.90
31695;DHT22;18289;51.330;4.946;2022-07-23T08:55:20;21.30;99.90
31695;DHT22;18289;51.330;4.946;2022-07-23T08:57:51;21.40;99.90
31695;DHT22;18289;51.330;4.946;2022-07-23T09:00:19;21.50;99.90
31695;DHT22;18289;51.330;4.946;2022-07-23T09:02:45;21.60;99.90
31695;DHT22;18289;51.330;4.946;2022-07-23T09:05:12;21.70;99.90
31695;DHT22;18289;51.330;4.946;2022-07-23T09:10:54;21.80;99.90
31695;DHT22;18289;51.330;4.946;2022-07-23T09:15:58;22.10;99.90
31695;DHT22;18289;51.330;4.946;2022-07-23T09:18:29;22.10;99.90
31695;DHT22;18289;51.330;4.946;2022-07-23T09:21:21;22.20;99.90
31695;DHT22;18289;51.330;4.946;2022-07-23T09:23:54;22.30;99.90
31695;DHT22;18289;51.330;4.946;2022-07-23T09:28:55;22.40;99.90
31695;DHT22;18289;51.330;4.946;2022-07-23T09:31:22;22.50;99.90
31695;DHT22;18289;51.330;4.946;2022-07-23T09:33:48;22.70;99.90
31695;DHT22;18289;51.330;4.946;2022-07-23T09:36:13;22.90;99.90
31695;DHT22;18289;51.330;4.946;2022-07-23T09:38:50;23.00;99.90
31695;DHT22;18289;51.330;4.946;2022-07-23T09:41:16;23.20;99.90
31695;DHT22;18289;51.330;4.946;2022-07-23T09:43:42;23.30;99.90
31695;DHT22;18289;51.330;4.946;2022-07-23T09:46:24;23.50;99.90
31695;DHT22;18289;51.330;4.946;2022-07-23T09:48:51;23.60;99.90
31695;DHT22;18289;51.330;4.946;2022-07-23T09:51:18;23.60;99.90
31695;DHT22;18289;51.330;4.946;2022-07-23T09:54:02;24.10;99.90
31695;DHT22;18289;51.330;4.946;2022-07-23T09:56:28;24.60;99.90
31695;DHT22;18289;51.330;4.946;2022-07-23T09:58:54;25.40;99.90
31695;DHT22;18289;51.330;4.946;2022-07-23T10:01:50;26.40;99.90
31695;DHT22;18289;51.330;4.946;2022-07-23T10:04:16;28.00;99.90
31695;DHT22;18289;51.330;4.946;2022-07-23T10:06:43;29.00;99.90
31695;DHT22;18289;51.330;4.946;2022-07-23T10:09:12;29.30;96.60
31695;DHT22;18289;51.330;4.946;2022-07-23T10:11:42;29.10;94.30
31695;DHT22;18289;51.330;4.946;2022-07-23T10:14:08;29.70;95.40
31695;DHT22;18289;51.330;4.946;2022-07-23T10:16:33;30.70;94.40
31695;DHT22;18289;51.330;4.946;2022-07-23T10:19:00;32.20;93.40
31695;DHT22;18289;51.330;4.946;2022-07-23T10:21:42;33.10;90.20
31695;DHT22;18289;51.330;4.946;2022-07-23T10:27:20;33.60;81.00
31695;DHT22;18289;51.330;4.946;2022-07-23T10:30:04;34.60;81.70
31695;DHT22;18289;51.330;4.946;2022-07-23T10:32:58;35.00;77.20
31695;DHT22;18289;51.330;4.946;2022-07-23T10:38:23;35.20;71.50
31695;DHT22;18289;51.330;4.946;2022-07-23T10:40:59;35.10;68.60
31695;DHT22;18289;51.330;4.946;2022-07-23T10:43:25;34.40;72.20
31695;DHT22;18289;51.330;4.946;2022-07-23T10:45:52;33.70;71.90
31695;DHT22;18289;51.330;4.946;2022-07-23T10:48:20;33.50;75.00
31695;DHT22;18289;51.330;4.946;2022-07-23T10:51:11;33.50;74.10
31695;DHT22;18289;51.330;4.946;2022-07-23T10:54:09;33.90;75.60
31695;DHT22;18289;51.330;4.946;2022-07-23T10:59:20;35.40;70.60
31695;DHT22;18289;51.330;4.946;2022-07-23T11:01:46;35.90;67.70
31695;DHT22;18289;51.330;4.946;2022-07-23T11:04:12;36.40;67.70
31695;DHT22;18289;51.330;4.946;2022-07-23T11:09:30;36.80;63.90
31695;DHT22;18289;51.330;4.946;2022-07-23T11:25:11;33.60;66.90
31695;DHT22;18289;51.330;4.946;2022-07-23T11:27:46;33.20;67.90
31695;DHT22;18289;51.330;4.946;2022-07-23T11:32:54;31.70;70.30
31695;DHT22;18289;51.330;4.946;2022-07-23T11:35:45;30.70;68.40
31695;DHT22;18289;51.330;4.946;2022-07-23T11:38:20;30.00;71.50
31695;DHT22;18289;51.330;4.946;2022-07-23T11:40:49;29.10;74.90
31695;DHT22;18289;51.330;4.946;2022-07-23T11:43:15;28.60;74.60
31695;DHT22;18289;51.330;4.946;2022-07-23T11:45:47;28.10;75.90
31695;DHT22;18289;51.330;4.946;2022-07-23T11:48:21;27.80;78.20
31695;DHT22;18289;51.330;4.946;2022-07-23T11:50:48;27.60;78.80
31695;DHT22;18289;51.330;4.946;2022-07-23T11:53:24;27.30;78.30
31695;DHT22;18289;51.330;4.946;2022-07-23T11:55:51;27.00;76.80
31695;DHT22;18289;51.330;4.946;2022-07-23T11:58:17;26.80;80.00
31695;DHT22;18289;51.330;4.946;2022-07-23T12:00:44;26.70;82.50
31695;DHT22;18289;51.330;4.946;2022-07-23T12:03:10;26.80;82.10
31695;DHT22;18289;51.330;4.946;2022-07-23T12:05:37;26.60;81.50
31695;DHT22;18289;51.330;4.946;2022-07-23T12:08:05;26.60;81.40
31695;DHT22;18289;51.330;4.946;2022-07-23T12:10:38;26.50;82.90
31695;DHT22;18289;51.330;4.946;2022-07-23T12:13:08;26.50;81.40
31695;DHT22;18289;51.330;4.946;2022-07-23T12:15:41;26.50;83.70
31695;DHT22;18289;51.330;4.946;2022-07-23T12:18:10;26.70;84.10
31695;DHT22;18289;51.330;4.946;2022-07-23T12:20:39;26.70;81.90
31695;DHT22;18289;51.330;4.946;2022-07-23T12:23:06;26.70;82.90
31695;DHT22;18289;51.330;4.946;2022-07-23T12:25:35;26.80;83.80
31695;DHT22;18289;51.330;4.946;2022-07-23T12:28:09;26.80;83.90
31695;DHT22;18289;51.330;4.946;2022-07-23T12:33:29;27.50;84.80
31695;DHT22;18289;51.330;4.946;2022-07-23T12:35:58;27.90;81.40
31695;DHT22;18289;51.330;4.946;2022-07-23T12:38:26;28.80;79.70
31695;DHT22;18289;51.330;4.946;2022-07-23T12:40:57;29.80;82.60
31695;DHT22;18289;51.330;4.946;2022-07-23T12:43:32;30.60;77.20
31695;DHT22;18289;51.330;4.946;2022-07-23T12:46:10;30.90;75.50
31695;DHT22;18289;51.330;4.946;2022-07-23T12:48:38;31.00;75.10
31695;DHT22;18289;51.330;4.946;2022-07-23T12:53:32;31.30;75.30
31695;DHT22;18289;51.330;4.946;2022-07-23T12:56:08;31.30;74.30
31695;DHT22;18289;51.330;4.946;2022-07-23T12:58:52;31.40;73.10
31695;DHT22;18289;51.330;4.946;2022-07-23T13:04:07;30.40;76.70
31695;DHT22;18289;51.330;4.946;2022-07-23T13:06:45;31.20;75.50
31695;DHT22;18289;51.330;4.946;2022-07-23T13:09:15;31.70;71.90
31695;DHT22;18289;51.330;4.946;2022-07-23T13:11:43;32.60;72.20
31695;DHT22;18289;51.330;4.946;2022-07-23T13:14:09;33.70;72.80
31695;DHT22;18289;51.330;4.946;2022-07-23T13:16:34;34.10;67.50
31695;DHT22;18289;51.330;4.946;2022-07-23T13:19:00;33.20;69.10
31695;DHT22;18289;51.330;4.946;2022-07-23T13:21:29;32.30;68.70
31695;DHT22;18289;51.330;4.946;2022-07-23T13:23:56;31.80;70.30
31695;DHT22;18289;51.330;4.946;2022-07-23T13:26:22;31.50;74.60
31695;DHT22;18289;51.330;4.946;2022-07-23T13:28:48;32.30;70.80
31695;DHT22;18289;51.330;4.946;2022-07-23T13:31:14;33.50;72.60
31695;DHT22;18289;51.330;4.946;2022-07-23T13:33:40;35.30;69.40
31695;DHT22;18289;51.330;4.946;2022-07-23T13:36:06;36.80;70.50
31695;DHT22;18289;51.330;4.946;2022-07-23T13:38:32;38.10;63.80
31695;DHT22;18289;51.330;4.946;2022-07-23T13:40:59;38.80;61.30
31695;DHT22;18289;51.330;4.946;2022-07-23T13:43:25;39.20;58.70
31695;DHT22;18289;51.330;4.946;2022-07-23T13:45:52;38.50;60.80
31695;DHT22;18289;51.330;4.946;2022-07-23T13:48:18;38.40;59.40
31695;DHT22;18289;51.330;4.946;2022-07-23T13:50:45;38.70;60.10
31695;DHT22;18289;51.330;4.946;2022-07-23T13:53:19;38.70;57.70
31695;DHT22;18289;51.330;4.946;2022-07-23T13:55:47;38.90;59.70
31695;DHT22;18289;51.330;4.946;2022-07-23T13:58:14;38.30;58.00
31695;DHT22;18289;51.330;4.946;2022-07-23T14:00:43;37.40;59.30
31695;DHT22;18289;51.330;4.946;2022-07-23T14:03:09;37.40;60.20
31695;DHT22;18289;51.330;4.946;2022-07-23T14:05:35;38.20;58.90
31695;DHT22;18289;51.330;4.946;2022-07-23T14:08:02;38.70;61.00
31695;DHT22;18289;51.330;4.946;2022-07-23T14:10:28;39.00;56.50
31695;DHT22;18289;51.330;4.946;2022-07-23T14:12:54;38.40;57.40
31695;DHT22;18289;51.330;4.946;2022-07-23T14:15:22;37.60;57.50
31695;DHT22;18289;51.330;4.946;2022-07-23T14:17:47;36.70;61.70
31695;DHT22;18289;51.330;4.946;2022-07-23T14:20:14;35.50;59.80
31695;DHT22;18289;51.330;4.946;2022-07-23T14:22:40;34.10;60.70
31695;DHT22;18289;51.330;4.946;2022-07-23T14:25:07;32.90;64.10
31695;DHT22;18289;51.330;4.946;2022-07-23T14:27:33;32.30;65.90
31695;DHT22;18289;51.330;4.946;2022-07-23T14:30:00;31.80;69.50
31695;DHT22;18289;51.330;4.946;2022-07-23T14:32:26;31.40;69.20
31695;DHT22;18289;51.330;4.946;2022-07-23T14:34:52;32.80;67.00
31695;DHT22;18289;51.330;4.946;2022-07-23T14:37:19;34.00;64.90
31695;DHT22;18289;51.330;4.946;2022-07-23T14:39:45;34.30;62.50
31695;DHT22;18289;51.330;4.946;2022-07-23T14:42:12;33.40;63.80
31695;DHT22;18289;51.330;4.946;2022-07-23T14:44:38;32.80;64.70
31695;DHT22;18289;51.330;4.946;2022-07-23T14:47:05;32.90;68.70
31695;DHT22;18289;51.330;4.946;2022-07-23T14:49:31;34.40;68.20
31695;DHT22;18289;51.330;4.946;2022-07-23T14:51:58;36.20;65.20
31695;DHT22;18289;51.330;4.946;2022-07-23T14:54:27;37.10;59.20
31695;DHT22;18289;51.330;4.946;2022-07-23T14:56:54;36.50;58.30
31695;DHT22;18289;51.330;4.946;2022-07-23T14:59:20;35.30;58.70
31695;DHT22;18289;51.330;4.946;2022-07-23T15:01:46;34.10;61.20
31695;DHT22;18289;51.330;4.946;2022-07-23T15:04:12;33.30;63.90
31695;DHT22;18289;51.330;4.946;2022-07-23T15:06:38;32.80;64.20
31695;DHT22;18289;51.330;4.946;2022-07-23T15:09:04;32.60;65.10
31695;DHT22;18289;51.330;4.946;2022-07-23T15:11:30;33.30;65.40
31695;DHT22;18289;51.330;4.946;2022-07-23T15:14:00;34.20;63.80
31695;DHT22;18289;51.330;4.946;2022-07-23T15:16:26;34.80;61.50
31695;DHT22;18289;51.330;4.946;2022-07-23T15:18:52;34.40;62.70
31695;DHT22;18289;51.330;4.946;2022-07-23T15:21:17;33.60;63.70
31695;DHT22;18289;51.330;4.946;2022-07-23T15:23:44;32.90;63.80
31695;DHT22;18289;51.330;4.946;2022-07-23T15:26:09;32.20;64.40
31695;DHT22;18289;51.330;4.946;2022-07-23T15:28:36;31.60;67.10
31695;DHT22;18289;51.330;4.946;2022-07-23T15:31:02;32.30;68.40
31695;DHT22;18289;51.330;4.946;2022-07-23T15:33:28;33.40;68.10
31695;DHT22;18289;51.330;4.946;2022-07-23T15:35:54;34.70;68.10
31695;DHT22;18289;51.330;4.946;2022-07-23T15:38:22;35.60;65.50
31695;DHT22;18289;51.330;4.946;2022-07-23T15:40:48;36.30;63.10
31695;DHT22;18289;51.330;4.946;2022-07-23T15:43:14;36.30;59.40
31695;DHT22;18289;51.330;4.946;2022-07-23T15:45:40;35.80;62.70
31695;DHT22;18289;51.330;4.946;2022-07-23T15:48:06;35.20;58.10
31695;DHT22;18289;51.330;4.946;2022-07-23T15:50:32;35.90;60.40
31695;DHT22;18289;51.330;4.946;2022-07-23T15:52:58;37.00;59.60
31695;DHT22;18289;51.330;4.946;2022-07-23T15:55:24;38.20;56.10
31695;DHT22;18289;51.330;4.946;2022-07-23T15:57:50;38.70;58.20
31695;DHT22;18289;51.330;4.946;2022-07-23T16:00:17;39.00;57.20
31695;DHT22;18289;51.330;4.946;2022-07-23T16:02:43;39.70;54.80
31695;DHT22;18289;51.330;4.946;2022-07-23T16:05:09;39.80;53.70
31695;DHT22;18289;51.330;4.946;2022-07-23T16:07:35;39.40;55.20
31695;DHT22;18289;51.330;4.946;2022-07-23T16:10:04;38.00;56.10
31695;DHT22;18289;51.330;4.946;2022-07-23T16:12:30;37.10;58.40
31695;DHT22;18289;51.330;4.946;2022-07-23T16:14:56;35.70;58.20